Ashley, Michigan
Current Conditions -  °F | °C
As of 4:14 AM on Saturday 22 Nov 2014 (Local Time) from KAMN Reporting Station
Overcast Overcast  
Wind Chill: 19°   Ceiling: 2800
Heat Index: 27°   Visibility: 10mi
Dew Point: 18°   Wind: 8mph
Humidity: 67%   Direction: 190°S
Pressure: 30.11"   Gusts: NA
Location:  43.19°N, 84.47°W
Report Text: KAMN 220914Z AUTO 19007KT 10SM OVC028 M03/M08 A3011 RMK AO2 T10261079
Loading
Personal Weather Stations






























Interactive Weather Map New forecast layout! Learn more

10-Day Weather Forecast

Advertisements
Track Severe Weather on mobile